Pagrindinis puslapis
METAR-TAF:

METAR-TAF

Oro uostai :

Rarotongos tarptautinis oro uostas

Rarotonga, Kuko Salos

platuma: 21-12S, ilguma: 159-49W, Aukštis: 7 m

Dabartinis oras

Ataskaita buvo paskelbta 12 minutes, ne 22:00 UTC
Vėjas 5 kt iš Šiaurės/Šiaurės Rytų, svyruoja nuo Šiaurės ir Rytų/Šiaurės Rytų
Temperatūra 28°C
Drėgmė 84%
Slėgis 1021 hPa
Matomumas 10 km arba daugiau

METAR: NCRG 302200Z AUTO 03005KT 360V070 9999 SCT018/// BKN025/// 28/25 Q1021

Laikas: 12:12 (22:12 UTC)

Prognozė

Ataskaita buvo paskelbta 4 valandos ir 57 minutes, ne 17:15 UTC
Prognozė galioja nuo 30 metu 18 UTC su 31 metu 18 UTC
Vėjas 3 kt iš Pietų
Matomumas 10 km arba daugiau
Išsisklaidę debesys ne aukštis 900 ft

TAF: NCRG 301715Z 3018/3118 18003KT 9999 SCT009

Orai ataskaitas ir orų prognozės (METAR, TAF).

turimą stotys yra geltonos ir raudonos taškus žemėlapyje.

Perkelti pele per norėdami pamatyti stoties vardą.

Tada spustelėkite, norėdami matyti oro stebėjimo ir prognozės.

Norėdami pakeisti žemėlapį: spustelėkite ant žalios mygtukų su juodo kryžiaus žemyn,; žalią mygtuką su brūkšneliu, jei norite nutolinti; arba žalių rodyklių gretimoms žemėlapius.


METAR-TAF: